sensor_id;sensor_type;location;lat;lon;timestamp;temperature;humidity
19192;DHT22;9728;48.194;16.346;2023-05-29T11:29:27;31.80;35.00
19192;DHT22;9728;48.194;16.346;2023-05-29T11:34:31;32.00;35.10
19192;DHT22;9728;48.194;16.346;2023-05-29T11:39:36;32.20;35.30
19192;DHT22;9728;48.194;16.346;2023-05-29T11:44:41;32.30;34.90
19192;DHT22;9728;48.194;16.346;2023-05-29T11:49:44;32.40;34.70
19192;DHT22;9728;48.194;16.346;2023-05-29T11:54:48;32.50;35.20
19192;DHT22;9728;48.194;16.346;2023-05-29T11:59:54;32.60;34.50
19192;DHT22;9728;48.194;16.346;2023-05-29T12:05:01;32.70;34.00
19192;DHT22;9728;48.194;16.346;2023-05-29T12:10:09;32.70;33.80
19192;DHT22;9728;48.194;16.346;2023-05-29T12:15:14;32.80;33.00
19192;DHT22;9728;48.194;16.346;2023-05-29T12:20:22;32.90;33.30
19192;DHT22;9728;48.194;16.346;2023-05-29T12:25:25;33.10;33.40
19192;DHT22;9728;48.194;16.346;2023-05-29T12:30:31;33.10;33.30
19192;DHT22;9728;48.194;16.346;2023-05-29T12:35:35;33.20;32.80
19192;DHT22;9728;48.194;16.346;2023-05-29T12:40:39;33.30;32.90
19192;DHT22;9728;48.194;16.346;2023-05-29T12:45:44;33.40;32.70
19192;DHT22;9728;48.194;16.346;2023-05-29T12:50:49;33.50;32.20
19192;DHT22;9728;48.194;16.346;2023-05-29T12:55:52;33.60;32.00
19192;DHT22;9728;48.194;16.346;2023-05-29T13:01:00;33.70;32.10
19192;DHT22;9728;48.194;16.346;2023-05-29T13:06:04;33.70;31.80
19192;DHT22;9728;48.194;16.346;2023-05-29T13:11:07;33.70;31.70
19192;DHT22;9728;48.194;16.346;2023-05-29T13:16:12;33.80;31.70
19192;DHT22;9728;48.194;16.346;2023-05-29T13:21:15;33.90;31.40
19192;DHT22;9728;48.194;16.346;2023-05-29T13:26:19;33.90;31.50
19192;DHT22;9728;48.194;16.346;2023-05-29T13:31:25;34.00;32.00
19192;DHT22;9728;48.194;16.346;2023-05-29T13:36:28;34.00;30.90
19192;DHT22;9728;48.194;16.346;2023-05-29T13:41:33;34.00;31.00
19192;DHT22;9728;48.194;16.346;2023-05-29T13:46:38;34.10;30.70
19192;DHT22;9728;48.194;16.346;2023-05-29T13:51:42;34.20;30.30
19192;DHT22;9728;48.194;16.346;2023-05-29T13:56:47;34.20;30.40
19192;DHT22;9728;48.194;16.346;2023-05-29T14:01:51;34.30;30.30
19192;DHT22;9728;48.194;16.346;2023-05-29T14:06:55;34.30;30.10
19192;DHT22;9728;48.194;16.346;2023-05-29T14:11:59;34.30;30.10
19192;DHT22;9728;48.194;16.346;2023-05-29T14:17:06;34.30;29.70
19192;DHT22;9728;48.194;16.346;2023-05-29T14:22:09;34.40;29.30
19192;DHT22;9728;48.194;16.346;2023-05-29T14:27:12;34.40;29.40
19192;DHT22;9728;48.194;16.346;2023-05-29T14:32:17;34.40;29.20
19192;DHT22;9728;48.194;16.346;2023-05-29T14:37:20;34.50;28.80
19192;DHT22;9728;48.194;16.346;2023-05-29T14:42:24;34.50;28.90
19192;DHT22;9728;48.194;16.346;2023-05-29T14:47:28;34.40;28.90
19192;DHT22;9728;48.194;16.346;2023-05-29T14:52:32;34.30;28.80
19192;DHT22;9728;48.194;16.346;2023-05-29T14:57:35;34.30;28.90
19192;DHT22;9728;48.194;16.346;2023-05-29T15:02:40;34.20;28.90
19192;DHT22;9728;48.194;16.346;2023-05-29T15:07:43;34.10;28.80
19192;DHT22;9728;48.194;16.346;2023-05-29T15:12:47;34.00;28.70
19192;DHT22;9728;48.194;16.346;2023-05-29T15:17:53;33.90;28.70
19192;DHT22;9728;48.194;16.346;2023-05-29T15:22:58;33.80;28.50
19192;DHT22;9728;48.194;16.346;2023-05-29T15:28:01;33.60;28.60
19192;DHT22;9728;48.194;16.346;2023-05-29T15:33:06;33.40;28.70
19192;DHT22;9728;48.194;16.346;2023-05-29T15:38:12;33.30;28.80
19192;DHT22;9728;48.194;16.346;2023-05-29T15:43:15;33.10;28.90
19192;DHT22;9728;48.194;16.346;2023-05-29T15:48:20;32.90;29.00
19192;DHT22;9728;48.194;16.346;2023-05-29T15:53:24;32.80;29.10
19192;DHT22;9728;48.194;16.346;2023-05-29T15:58:27;32.60;29.30
19192;DHT22;9728;48.194;16.346;2023-05-29T16:03:32;32.50;29.40
19192;DHT22;9728;48.194;16.346;2023-05-29T16:08:35;32.30;29.40
19192;DHT22;9728;48.194;16.346;2023-05-29T16:13:39;32.20;29.50
19192;DHT22;9728;48.194;16.346;2023-05-29T16:18:45;32.10;29.70
19192;DHT22;9728;48.194;16.346;2023-05-29T16:23:48;32.00;29.70
19192;DHT22;9728;48.194;16.346;2023-05-29T16:28:52;31.80;29.80
19192;DHT22;9728;48.194;16.346;2023-05-29T16:33:56;31.70;29.90
19192;DHT22;9728;48.194;16.346;2023-05-29T16:39:00;31.60;29.90
19192;DHT22;9728;48.194;16.346;2023-05-29T16:44:03;31.50;29.90
19192;DHT22;9728;48.194;16.346;2023-05-29T16:49:08;31.40;29.90
19192;DHT22;9728;48.194;16.346;2023-05-29T16:54:12;31.30;30.00
19192;DHT22;9728;48.194;16.346;2023-05-29T16:59:15;31.20;30.10
19192;DHT22;9728;48.194;16.346;2023-05-29T17:04:20;31.10;30.10
19192;DHT22;9728;48.194;16.346;2023-05-29T17:09:24;31.00;30.20
19192;DHT22;9728;48.194;16.346;2023-05-29T17:14:29;30.90;30.40
19192;DHT22;9728;48.194;16.346;2023-05-29T17:19:33;30.80;30.40
19192;DHT22;9728;48.194;16.346;2023-05-29T17:24:37;30.70;30.40
19192;DHT22;9728;48.194;16.346;2023-05-29T17:29:40;30.70;30.60
19192;DHT22;9728;48.194;16.346;2023-05-29T17:34:45;30.60;30.70
19192;DHT22;9728;48.194;16.346;2023-05-29T17:39:48;30.50;30.80
19192;DHT22;9728;48.194;16.346;2023-05-29T17:44:52;30.50;30.90
19192;DHT22;9728;48.194;16.346;2023-05-29T17:49:56;30.40;31.00
19192;DHT22;9728;48.194;16.346;2023-05-29T17:55:00;30.30;31.10
19192;DHT22;9728;48.194;16.346;2023-05-29T18:00:04;30.20;31.20
19192;DHT22;9728;48.194;16.346;2023-05-29T18:05:17;30.20;31.40
19192;DHT22;9728;48.194;16.346;2023-05-29T18:10:20;30.20;31.50
19192;DHT22;9728;48.194;16.346;2023-05-29T18:15:25;30.10;31.60
19192;DHT22;9728;48.194;16.346;2023-05-29T18:20:30;30.00;31.70
19192;DHT22;9728;48.194;16.346;2023-05-29T18:25:33;30.00;31.90
19192;DHT22;9728;48.194;16.346;2023-05-29T18:30:37;29.90;32.00
19192;DHT22;9728;48.194;16.346;2023-05-29T18:35:42;29.80;32.00
19192;DHT22;9728;48.194;16.346;2023-05-29T18:40:45;29.80;32.20
19192;DHT22;9728;48.194;16.346;2023-05-29T18:45:50;29.70;32.60
19192;DHT22;9728;48.194;16.346;2023-05-29T18:50:54;29.70;32.60
19192;DHT22;9728;48.194;16.346;2023-05-29T18:55:58;29.60;32.60
19192;DHT22;9728;48.194;16.346;2023-05-29T19:01:02;29.60;33.10
19192;DHT22;9728;48.194;16.346;2023-05-29T19:06:28;29.50;33.00
19192;DHT22;9728;48.194;16.346;2023-05-29T19:11:31;29.50;33.90
19192;DHT22;9728;48.194;16.346;2023-05-29T19:16:35;29.50;33.30
19192;DHT22;9728;48.194;16.346;2023-05-29T19:21:40;29.40;33.40
19192;DHT22;9728;48.194;16.346;2023-05-29T19:26:44;29.30;33.60
19192;DHT22;9728;48.194;16.346;2023-05-29T19:31:49;29.20;33.70
19192;DHT22;9728;48.194;16.346;2023-05-29T19:36:53;29.20;33.90
19192;DHT22;9728;48.194;16.346;2023-05-29T19:41:57;29.10;34.00
19192;DHT22;9728;48.194;16.346;2023-05-29T19:47:02;29.10;34.10
19192;DHT22;9728;48.194;16.346;2023-05-29T19:52:08;29.00;34.20
19192;DHT22;9728;48.194;16.346;2023-05-29T19:57:12;28.90;34.40
19192;DHT22;9728;48.194;16.346;2023-05-29T20:02:15;28.80;34.40
19192;DHT22;9728;48.194;16.346;2023-05-29T20:07:20;28.80;34.60
19192;DHT22;9728;48.194;16.346;2023-05-29T20:12:24;28.70;34.80
19192;DHT22;9728;48.194;16.346;2023-05-29T20:17:28;28.60;35.00
19192;DHT22;9728;48.194;16.346;2023-05-29T20:22:33;28.50;35.20
19192;DHT22;9728;48.194;16.346;2023-05-29T20:27:36;28.40;35.40
19192;DHT22;9728;48.194;16.346;2023-05-29T20:32:40;28.30;35.40
19192;DHT22;9728;48.194;16.346;2023-05-29T20:37:47;28.30;35.70
19192;DHT22;9728;48.194;16.346;2023-05-29T20:42:51;28.20;36.10
19192;DHT22;9728;48.194;16.346;2023-05-29T20:47:57;28.10;36.10
19192;DHT22;9728;48.194;16.346;2023-05-29T20:53:02;28.00;36.20
19192;DHT22;9728;48.194;16.346;2023-05-29T20:58:05;27.90;36.50
19192;DHT22;9728;48.194;16.346;2023-05-29T21:03:11;27.80;36.50
19192;DHT22;9728;48.194;16.346;2023-05-29T21:08:17;27.70;36.70
19192;DHT22;9728;48.194;16.346;2023-05-29T21:13:20;27.60;37.00
19192;DHT22;9728;48.194;16.346;2023-05-29T21:18:24;27.50;36.90
19192;DHT22;9728;48.194;16.346;2023-05-29T21:23:29;27.40;37.50
19192;DHT22;9728;48.194;16.346;2023-05-29T21:28:32;27.40;38.50
19192;DHT22;9728;48.194;16.346;2023-05-29T21:33:36;27.30;38.40
19192;DHT22;9728;48.194;16.346;2023-05-29T21:38:41;27.20;37.60
19192;DHT22;9728;48.194;16.346;2023-05-29T21:43:44;27.10;37.80
19192;DHT22;9728;48.194;16.346;2023-05-29T21:48:48;27.10;37.90
19192;DHT22;9728;48.194;16.346;2023-05-29T21:53:53;27.00;38.10
19192;DHT22;9728;48.194;16.346;2023-05-29T21:58:56;26.90;38.80
19192;DHT22;9728;48.194;16.346;2023-05-29T22:04:00;26.80;38.40
19192;DHT22;9728;48.194;16.346;2023-05-29T22:09:05;26.80;38.50
19192;DHT22;9728;48.194;16.346;2023-05-29T22:14:08;26.80;38.70
19192;DHT22;9728;48.194;16.346;2023-05-29T22:19:12;26.70;38.60
19192;DHT22;9728;48.194;16.346;2023-05-29T22:24:17;26.60;38.80
19192;DHT22;9728;48.194;16.346;2023-05-29T22:29:20;26.60;38.60
19192;DHT22;9728;48.194;16.346;2023-05-29T22:34:24;26.50;39.30
19192;DHT22;9728;48.194;16.346;2023-05-29T22:39:30;26.50;39.80
19192;DHT22;9728;48.194;16.346;2023-05-29T22:44:33;26.50;39.40
19192;DHT22;9728;48.194;16.346;2023-05-29T22:49:37;26.50;39.40
19192;DHT22;9728;48.194;16.346;2023-05-29T22:54:42;26.50;39.50
19192;DHT22;9728;48.194;16.346;2023-05-29T22:59:46;26.40;39.70
19192;DHT22;9728;48.194;16.346;2023-05-29T23:04:49;26.40;39.90
19192;DHT22;9728;48.194;16.346;2023-05-29T23:09:54;26.40;40.60
19192;DHT22;9728;48.194;16.346;2023-05-29T23:14:57;26.30;40.40
19192;DHT22;9728;48.194;16.346;2023-05-29T23:20:01;26.30;40.10
19192;DHT22;9728;48.194;16.346;2023-05-29T23:25:08;26.20;40.00
19192;DHT22;9728;48.194;16.346;2023-05-29T23:30:12;26.10;40.20
19192;DHT22;9728;48.194;16.346;2023-05-29T23:35:16;26.00;40.00
19192;DHT22;9728;48.194;16.346;2023-05-29T23:40:21;26.00;41.10
19192;DHT22;9728;48.194;16.346;2023-05-29T23:45:25;25.90;40.70
19192;DHT22;9728;48.194;16.346;2023-05-29T23:50:28;25.90;40.70
19192;DHT22;9728;48.194;16.346;2023-05-29T23:55:33;25.80;40.60
